Time;durP1;ratioP1;P1;durP2;ratioP2;P2;SDS_P1;SDS_P2;PMS_P1;PMS_P2;Temp;Humidity;BMP_temperature;BMP_pressure;BME280_temperature;BME280_humidity;BME280_pressure;Samples;Min_cycle;Max_cycle;Signal;HPM_P1;HPM_P2
2022/06/17 00:00:50;;;;;;;;;;;;;;;;;;5026990;28;19971;-84
2022/06/17 00:03:16;;;;;;;;;;;;;;;;;;5025211;28;20357;-82
2022/06/17 00:05:42;;;;;;;;;;;;;;;;;;5030385;28;19912;-81
2022/06/17 00:08:08;;;;;;;;;;;;;;;;;;5023867;28;19925;-83
2022/06/17 00:10:33;;;;;;;;;;;;;;;;;;5029058;28;19914;-83
2022/06/17 00:12:59;;;;;;;;;;;;;;;;;;5025191;28;20068;-83
2022/06/17 00:15:25;;;;;;;;;;;14.30;99.90;;;;;;5027828;28;19917;-81
2022/06/17 00:17:58;;;;;;;;;;;14.10;99.90;;;;;;5020573;28;19909;-80
2022/06/17 00:20:24;;;;;;;;;;;;;;;;;;5021827;28;19924;-82
2022/06/17 00:22:50;;;;;;;;;;;;;;;;;;5031309;28;19909;-82
2022/06/17 00:25:26;;;;;;;;;;;14.20;99.90;;;;;;5036058;28;19998;-81
2022/06/17 00:27:52;;;;;;;;;;;;;;;;;;5027773;28;19916;-83
2022/06/17 00:30:18;;;;;;;;;;;;;;;;;;5026757;28;19913;-83
2022/06/17 00:32:44;;;;;;;;;;;;;;;;;;5027861;28;19919;-80
2022/06/17 00:35:10;;;;;;;;;;;;;;;;;;5024573;28;19913;-82
2022/06/17 00:37:36;;;;;;;;;;;;;;;;;;5029061;28;19913;-82
2022/06/17 00:40:02;;;;;;;;;;;;;;;;;;5032631;28;19917;-84
2022/06/17 00:42:28;;;;;;;;;;;;;;;;;;5024859;28;20014;-85
2022/06/17 00:44:53;;;;;;;;;;;;;;;;;;5032070;28;20432;-81
2022/06/17 00:47:19;;;;;;;;;;;;;;;;;;5021861;28;20471;-82
2022/06/17 00:49:45;;;;;;;;;;;;;;;;;;5022300;28;20009;-82
2022/06/17 00:52:19;;;;;;;;;;;13.70;99.90;;;;;;5027353;28;19909;-81
2022/06/17 00:54:44;;;;;;;;;;;;;;;;;;5035133;28;19916;-82
2022/06/17 00:57:10;;;;;;;;;;;;;;;;;;5024983;28;19912;-84
2022/06/17 00:59:36;;;;;;;;;;;;;;;;;;5031646;28;19913;-81
2022/06/17 01:02:02;;;;;;;;;;;;;;;;;;5024871;28;20225;-81
2022/06/17 01:04:28;;;;;;;;;;;;;;;;;;5021767;28;19909;-81
2022/06/17 01:06:54;;;;;;;;;;;;;;;;;;5025519;28;19935;-83
2022/06/17 01:12:06;;;;;;;;;;;13.40;99.90;;;;;;5034475;28;20400;-81
2022/06/17 01:14:32;;;;;;;;;;;;;;;;;;5030703;28;19916;-81
2022/06/17 01:16:58;;;;;;;;;;;;;;;;;;5021037;28;19928;-81
2022/06/17 01:19:24;;;;;;;;;;;;;;;;;;5025098;28;20027;-80
2022/06/17 01:21:49;;;;;;;;;;;;;;;;;;5030474;28;20935;-83
2022/06/17 01:24:15;;;;;;;;;;;13.40;99.90;;;;;;5032681;28;19909;-81
2022/06/17 01:26:40;;;;;;;;;;;13.30;99.90;;;;;;5029761;28;20035;-80
2022/06/17 01:29:06;;;;;;;;;;;;;;;;;;5031581;28;19908;-82
2022/06/17 01:31:32;;;;;;;;;;;;;;;;;;5024503;28;19955;-80
2022/06/17 01:33:58;;;;;;;;;;;;;;;;;;5015967;28;19913;-84
2022/06/17 01:36:24;;;;;;;;;;;;;;;;;;5037634;28;20289;-81
2022/06/17 01:38:50;;;;;;;;;;;;;;;;;;5027291;28;20265;-81
2022/06/17 01:41:16;;;;;;;;;;;;;;;;;;5029650;28;19998;-84
2022/06/17 01:43:42;;;;;;;;;;;;;;;;;;5036124;28;20343;-83
2022/06/17 01:46:07;;;;;;;;;;;;;;;;;;5027302;28;19925;-83
2022/06/17 01:48:33;;;;;;;;;;;;;;;;;;5024703;28;19920;-81
2022/06/17 01:50:59;;;;;;;;;;;;;;;;;;5030082;28;20408;-82
2022/06/17 01:53:27;;;;;;;;;;;;;;;;;;5023721;28;19917;-82
2022/06/17 01:55:53;;;;;;;;;;;;;;;;;;5025084;28;19912;-81
2022/06/17 01:58:18;;;;;;;;;;;;;;;;;;5027515;28;20444;-81
2022/06/17 02:00:44;;;;;;;;;;;12.20;99.90;;;;;;5032157;28;20048;-81
2022/06/17 02:03:12;;;;;;;;;;;;;;;;;;5035151;28;20000;-82
2022/06/17 02:05:38;;;;;;;;;;;;;;;;;;5028316;28;20019;-80
2022/06/17 02:08:04;;;;;;;;;;;12.00;99.90;;;;;;5027965;28;20000;-81
2022/06/17 02:10:31;;;;;;;;;;;13.10;99.90;;;;;;5025859;28;19919;-80
2022/06/17 02:12:58;;;;;;;;;;;;;;;;;;5019947;28;19919;-81
2022/06/17 02:15:23;;;;;;;;;;;11.90;99.90;;;;;;5027817;28;20478;-80
2022/06/17 02:17:49;;;;;;;;;;;;;;;;;;5027227;28;19917;-83
2022/06/17 02:20:16;;;;;;;;;;;13.00;99.90;;;;;;5026787;28;19917;-81
2022/06/17 02:22:42;;;;;;;;;;;;;;;;;;5024680;28;19924;-82
2022/06/17 02:25:07;;;;;;;;;;;;;;;;;;5026802;28;19980;-81
2022/06/17 02:27:33;;;;;;;;;;;;;;;;;;5023852;28;19912;-82
2022/06/17 02:29:59;;;;;;;;;;;;;;;;;;5022584;28;19917;-82
2022/06/17 02:32:25;;;;;;;;;;;12.10;99.90;;;;;;5028618;28;20067;-82
2022/06/17 02:34:51;;;;;;;;;;;;;;;;;;5027763;28;19913;-83
2022/06/17 02:37:16;;;;;;;;;;;12.00;99.90;;;;;;5028641;28;19955;-81
2022/06/17 02:39:42;;;;;;;;;;;;;;;;;;5027162;28;19932;-81
2022/06/17 02:42:08;;;;;;;;;;;;;;;;;;5026488;28;20417;-82
2022/06/17 02:44:34;;;;;;;;;;;;;;;;;;5020893;28;19995;-82
2022/06/17 02:47:00;;;;;;;;;;;;;;;;;;5026531;28;19928;-82
2022/06/17 02:49:26;;;;;;;;;;;;;;;;;;5028001;28;20372;-82
2022/06/17 02:51:52;;;;;;;;;;;;;;;;;;5027174;28;19924;-83
2022/06/17 02:54:18;;;;;;;;;;;;;;;;;;5027599;28;20329;-81
2022/06/17 02:56:44;;;;;;;;;;;;;;;;;;5036869;28;19915;-82
2022/06/17 02:59:09;;;;;;;;;;;11.40;99.90;;;;;;5024282;28;20000;-82
2022/06/17 03:01:35;;;;;;;;;;;;;;;;;;5023676;28;19917;-84
2022/06/17 03:04:01;;;;;;;;;;;;;;;;;;5021248;28;19924;-85
2022/06/17 03:06:27;;;;;;;;;;;;;;;;;;5027700;28;19924;-82
2022/06/17 03:08:53;;;;;;;;;;;;;;;;;;5026972;28;20313;-83
2022/06/17 03:11:20;;;;;;;;;;;11.50;99.90;;;;;;5034666;28;19935;-80
2022/06/17 03:13:47;;;;;;;;;;;;;;;;;;5029425;28;19917;-82
2022/06/17 03:16:13;;;;;;;;;;;11.40;99.90;;;;;;5026620;28;19917;-81
2022/06/17 03:18:39;;;;;;;;;;;;;;;;;;5023314;28;19916;-82
2022/06/17 03:21:06;;;;;;;;;;;;;;;;;;5023813;28;19921;-85
2022/06/17 03:23:50;;;;;;;;;;;11.60;99.90;;;;;;5023063;28;20324;-81
2022/06/17 03:26:16;;;;;;;;;;;;;;;;;;5029291;28;20035;-82
2022/06/17 03:28:43;;;;;;;;;;;11.40;99.90;;;;;;5030390;28;20011;-81
2022/06/17 03:31:08;;;;;;;;;;;11.60;99.90;;;;;;5018383;28;19924;-81
2022/06/17 03:33:36;;;;;;;;;;;11.60;99.90;;;;;;5025729;28;20331;-81
2022/06/17 03:36:02;;;;;;;;;;;;;;;;;;5023737;28;19917;-82
2022/06/17 03:38:34;;;;;;;;;;;11.60;99.90;;;;;;5026625;28;19917;-82
2022/06/17 03:41:00;;;;;;;;;;;;;;;;;;5026870;28;20007;-81
2022/06/17 03:43:26;;;;;;;;;;;;;;;;;;5032294;28;19967;-84
2022/06/17 03:45:52;;;;;;;;;;;;;;;;;;5031974;28;19912;-83
2022/06/17 03:48:18;;;;;;;;;;;;;;;;;;5034355;28;19916;-82
2022/06/17 03:50:47;;;;;;;;;;;11.90;99.90;;;;;;5028755;28;20460;-82
2022/06/17 03:53:13;;;;;;;;;;;;;;;;;;5024247;28;19917;-84
2022/06/17 03:55:38;;;;;;;;;;;12.60;99.90;;;;;;5032731;28;19958;-82
2022/06/17 03:58:04;;;;;;;;;;;;;;;;;;5045444;28;19913;-84
2022/06/17 04:00:30;;;;;;;;;;;;;;;;;;5051468;28;19944;-84
2022/06/17 04:02:56;;;;;;;;;;;;;;;;;;5050614;28;19916;-85
2022/06/17 04:05:22;;;;;;;;;;;;;;;;;;5043717;28;19901;-82
2022/06/17 04:07:48;;;;;;;;;;;;;;;;;;5026871;28;20327;-85
2022/06/17 04:10:14;;;;;;;;;;;;;;;;;;5035303;28;19916;-82
2022/06/17 04:12:40;;;;;;;;;;;;;;;;;;5032023;28;19993;-83
2022/06/17 04:15:06;;;;;;;;;;;;;;;;;;5035255;28;19909;-85
2022/06/17 04:17:32;;;;;;;;;;;;;;;;;;5025042;28;19952;-82
2022/06/17 04:19:57;;;;;;;;;;;;;;;;;;5024672;28;19921;-81
2022/06/17 04:22:25;;;;;;;;;;;;;;;;;;5025589;28;19909;-84
2022/06/17 04:24:50;;;;;;;;;;;;;;;;;;5026299;28;19909;-82
2022/06/17 04:27:16;;;;;;;;;;;;;;;;;;5025740;28;19920;-82
2022/06/17 04:29:42;;;;;;;;;;;;;;;;;;5033219;28;19917;-81
2022/06/17 04:32:09;;;;;;;;;;;;;;;;;;5027151;28;20274;-83
2022/06/17 04:34:35;;;;;;;;;;;;;;;;;;5031734;28;20015;-81
2022/06/17 04:37:03;;;;;;;;;;;;;;;;;;5026913;28;19913;-82
2022/06/17 04:39:29;;;;;;;;;;;;;;;;;;5020162;28;19919;-81
2022/06/17 04:41:55;;;;;;;;;;;;;;;;;;5019898;28;19909;-81
2022/06/17 04:44:21;;;;;;;;;;;;;;;;;;5021657;28;19962;-81
2022/06/17 04:46:47;;;;;;;;;;;;;;;;;;5013472;28;20299;-82
2022/06/17 04:49:12;;;;;;;;;;;;;;;;;;5019242;28;19914;-82
2022/06/17 04:51:38;;;;;;;;;;;12.80;99.90;;;;;;5023042;28;19963;-79
2022/06/17 04:54:04;;;;;;;;;;;;;;;;;;5018922;28;19909;-79
2022/06/17 04:56:30;;;;;;;;;;;;;;;;;;5017396;28;20444;-80
2022/06/17 04:58:55;;;;;;;;;;;;;;;;;;5019404;28;19909;-79
2022/06/17 05:01:22;;;;;;;;;;;14.10;99.90;;;;;;5023547;28;19921;-78
2022/06/17 05:03:48;;;;;;;;;;;;;;;;;;5022998;28;20039;-78
2022/06/17 05:06:14;;;;;;;;;;;14.20;99.90;;;;;;5022686;28;20350;-79
2022/06/17 05:08:46;;;;;;;;;;;14.30;99.90;;;;;;5022890;28;19909;-78
2022/06/17 05:11:12;;;;;;;;;;;;;;;;;;5025730;28;19917;-81
2022/06/17 05:13:38;;;;;;;;;;;;;;;;;;5020567;28;19978;-80
2022/06/17 05:16:05;;;;;;;;;;;;;;;;;;5020382;28;19909;-79
2022/06/17 05:18:31;;;;;;;;;;;;;;;;;;5023394;28;20668;-79
2022/06/17 05:20:57;;;;;;;;;;;;;;;;;;5020877;28;19925;-81
2022/06/17 05:23:23;;;;;;;;;;;;;;;;;;5014653;28;19980;-78
2022/06/17 05:25:49;;;;;;;;;;;;;;;;;;5017866;28;19966;-82
2022/06/17 05:28:16;;;;;;;;;;;15.10;99.90;;;;;;5021622;28;19916;-79
2022/06/17 05:30:42;;;;;;;;;;;;;;;;;;5021309;28;20196;-80
2022/06/17 05:33:08;;;;;;;;;;;;;;;;;;5011750;28;19935;-80
2022/06/17 05:35:34;;;;;;;;;;;15.40;99.90;;;;;;5027581;28;20369;-79
2022/06/17 05:37:59;;;;;;;;;;;;;;;;;;5018903;28;19913;-81
2022/06/17 05:40:26;;;;;;;;;;;;;;;;;;5028011;28;19925;-79
2022/06/17 05:42:52;;;;;;;;;;;;;;;;;;5023480;28;19913;-79
2022/06/17 05:45:20;;;;;;;;;;;16.80;99.90;;;;;;5028062;28;20174;-81
2022/06/17 05:47:45;;;;;;;;;;;16.90;99.90;;;;;;5022487;28;20300;-81
2022/06/17 05:50:11;;;;;;;;;;;17.00;99.90;;;;;;5026226;28;19917;-80
2022/06/17 05:53:06;;;;;;;;;;;17.00;99.90;;;;;;5016700;28;19921;-81
2022/06/17 05:55:32;;;;;;;;;;;;;;;;;;5028395;28;19921;-81
2022/06/17 05:57:58;;;;;;;;;;;;;;;;;;5025470;28;19909;-81
2022/06/17 06:00:25;;;;;;;;;;;17.70;99.90;;;;;;5019995;28;20467;-80
2022/06/17 06:02:50;;;;;;;;;;;;;;;;;;5020975;28;19913;-80
2022/06/17 06:05:16;;;;;;;;;;;;;;;;;;5014289;28;20404;-83
2022/06/17 06:07:42;;;;;;;;;;;20.70;99.90;;;;;;5014137;28;19920;-82
2022/06/17 06:10:08;;;;;;;;;;;21.80;99.90;;;;;;5022246;28;20288;-80
2022/06/17 06:15:18;;;;;;;;;;;25.50;91.10;;;;;;5018850;28;19967;-81
2022/06/17 06:17:44;;;;;;;;;;;26.50;84.00;;;;;;5013562;28;19913;-80
2022/06/17 06:20:10;;;;;;;;;;;27.00;77.50;;;;;;5013923;28;20007;-82
2022/06/17 06:22:35;;;;;;;;;;;27.60;68.80;;;;;;5009173;28;20008;-81
2022/06/17 06:25:01;;;;;;;;;;;28.40;66.70;;;;;;5018677;28;19931;-81
2022/06/17 06:27:26;;;;;;;;;;;29.40;62.00;;;;;;5019601;28;19920;-81
2022/06/17 06:29:52;;;;;;;;;;;31.50;60.90;;;;;;5029576;28;19912;-82
2022/06/17 06:32:18;;;;;;;;;;;30.40;52.00;;;;;;5031581;28;19954;-81
2022/06/17 06:34:43;;;;;;;;;;;32.20;50.50;;;;;;5023247;28;19905;-81
2022/06/17 06:37:09;;;;;;;5.78;1.10;;;32.50;59.50;;;;;;5025099;28;19909;-81
2022/06/17 06:39:35;;;;;;;2.35;0.40;;;;;;;;;;5025838;28;20033;-83
2022/06/17 06:42:01;;;;;;;2.10;0.70;;;;;;;;;;5031862;28;20042;-82
2022/06/17 06:44:26;;;;;;;;;;;36.80;39.40;;;;;;5022224;28;20069;-81
2022/06/17 06:46:52;;;;;;;0.93;0.40;;;;;;;;;;5023557;28;19935;-80
2022/06/17 06:49:18;;;;;;;;;;;37.20;37.20;;;;;;5021161;28;20047;-80
2022/06/17 06:51:43;;;;;;;1.83;0.28;;;38.80;47.10;;;;;;5024451;28;20692;-80
2022/06/17 06:54:10;;;;;;;3.35;0.15;;;;;;;;;;5031470;28;20060;-81
2022/06/17 06:56:36;;;;;;;4.18;2.65;;;;;;;;;;5027299;28;20040;-81
2022/06/17 06:59:02;;;;;;;1.48;0.77;;;;;;;;;;5030513;28;20036;-81
2022/06/17 07:01:28;;;;;;;2.15;1.20;;;;;;;;;;5023961;28;20037;-82
2022/06/17 07:03:54;;;;;;;1.73;0.20;;;;;;;;;;5028357;28;20112;-82
2022/06/17 07:06:20;;;;;;;0.85;0.20;;;;;;;;;;5027891;28;20128;-83
2022/06/17 07:08:46;;;;;;;;;;;35.30;35.10;;;;;;5025373;28;20113;-82
2022/06/17 07:11:15;;;;;;;0.93;0.30;;;35.00;39.00;;;;;;5030243;28;19975;-82
2022/06/17 07:13:41;;;;;;;1.67;0.65;;;;;;;;;;5029863;28;20029;-80
2022/06/17 07:16:07;;;;;;;0.82;0.32;;;;;;;;;;5029742;28;20089;-82
2022/06/17 07:18:33;;;;;;;;;;;;;;;;;;5026105;28;20120;-84
2022/06/17 07:21:03;;;;;;;;;;;33.10;39.60;;;;;;5023881;28;19917;-82
2022/06/17 07:23:30;;;;;;;;;;;33.70;40.30;;;;;;5020411;28;19962;-81
2022/06/17 07:25:59;;;;;;;;;;;33.90;41.90;;;;;;5027104;28;19913;-83
2022/06/17 07:28:25;;;;;;;;;;;34.00;38.50;;;;;;5016863;28;19917;-84
2022/06/17 07:30:52;;;;;;;;;;;34.30;37.00;;;;;;5022174;28;19909;-80
2022/06/17 07:33:18;;;;;;;;;;;33.80;38.80;;;;;;5021645;28;19929;-84
2022/06/17 07:35:44;;;;;;;;;;;33.80;37.20;;;;;;5022209;28;19916;-81
2022/06/17 07:41:05;;;;;;;;;;;33.90;39.20;;;;;;5025724;28;19924;-82
2022/06/17 07:43:31;;;;;;;;;;;34.10;38.20;;;;;;5026155;28;20020;-81
2022/06/17 07:45:56;;;;;;;;;;;34.20;38.20;;;;;;5024286;28;20020;-81
2022/06/17 07:48:22;;;;;;;;;;;34.40;38.80;;;;;;5022994;28;19992;-78
2022/06/17 07:50:47;;;;;;;;;;;33.40;37.60;;;;;;5023160;28;19916;-84
2022/06/17 07:53:13;;;;;;;;;;;33.50;39.10;;;;;;5023351;28;19917;-80
2022/06/17 07:55:39;;;;;;;;;;;;;;;;;;5026465;28;19905;-81
2022/06/17 07:58:05;;;;;;;;;;;35.20;37.70;;;;;;5015439;28;19916;-83
2022/06/17 08:00:35;;;;;;;;;;;34.70;37.40;;;;;;5020937;28;19917;-81
2022/06/17 08:03:01;;;;;;;;;;;34.70;38.40;;;;;;5018007;28;19913;-81
2022/06/17 08:05:27;;;;;;;;;;;34.20;37.70;;;;;;5021376;28;19909;-81
2022/06/17 08:07:54;;;;;;;;;;;34.10;37.60;;;;;;5018661;28;20523;-83
2022/06/17 08:10:21;;;;;;;;;;;34.10;38.10;;;;;;5020911;28;19913;-82
2022/06/17 08:12:47;;;;;;;;;;;33.40;39.10;;;;;;5020781;28;19936;-86
2022/06/17 08:15:12;;;;;;;;;;;32.70;39.80;;;;;;5027480;28;19917;-84
2022/06/17 08:17:39;;;;;;;;;;;32.10;41.00;;;;;;5019612;28;19909;-85
2022/06/17 08:20:09;;;;;;;;;;;31.90;42.80;;;;;;5020824;28;19951;-84
2022/06/17 08:22:36;;;;;;;;;;;31.90;42.00;;;;;;5026768;28;20081;-84
2022/06/17 08:25:02;;;;;;;;;;;32.00;42.80;;;;;;5030633;28;19917;-84
2022/06/17 08:27:28;;;;;;;;;;;28.30;39.90;;;;;;5022873;28;19917;-84
2022/06/17 08:29:53;;;;;;;;;;;32.10;41.40;;;;;;5019776;28;21070;-86
2022/06/17 08:35:03;;;;;;;;;;;;;;;;;;5016424;28;19939;-84
2022/06/17 08:37:29;;;;;;;;;;;;;;;;;;5019081;28;19921;-83
2022/06/17 08:39:55;;;;;;;;;;;32.00;41.00;;;;;;5014020;28;19917;-82
2022/06/17 08:42:39;;;;;;;;;;;33.20;42.00;;;;;;5019723;28;19924;-82
2022/06/17 08:45:15;;;;;;;;;;;34.50;37.20;;;;;;5025975;28;19917;-80
2022/06/17 08:47:44;;;;;;;;;;;34.70;35.10;;;;;;5024494;28;19917;-81
2022/06/17 08:50:24;;;;;;;;;;;35.30;35.00;;;;;;5022278;28;19960;-83
2022/06/17 08:53:13;;;;;;;;;;;36.30;33.90;;;;;;5015738;28;19917;-83
2022/06/17 08:55:54;;;;;;;;;;;35.40;32.40;;;;;;5026969;28;19993;-84
2022/06/17 08:58:24;;;;;;;;;;;36.40;33.30;;;;;;5032931;28;20246;-82
2022/06/17 09:00:53;;;;;;;;;;;35.60;32.30;;;;;;5034284;28;19924;-82
2022/06/17 09:03:33;;;;;;;;;;;36.70;31.00;;;;;;5026068;28;19917;-81
2022/06/17 09:05:58;;;;;;;;;;;36.20;31.50;;;;;;5029463;28;20295;-81
2022/06/17 09:08:34;;;;;;;;;;;36.00;30.50;;;;;;5018550;28;19913;-83
2022/06/17 09:11:03;;;;;;;;;;;36.20;31.30;;;;;;5005860;28;19917;-84
2022/06/17 09:13:47;;;;;;;;;;;37.70;33.10;;;;;;5017140;28;20365;-83
2022/06/17 09:16:22;;;;;;;;;;;37.40;31.00;;;;;;5029550;28;20274;-83
2022/06/17 09:18:49;;;;;;;;;;;38.20;28.70;;;;;;5014596;28;21322;-83
2022/06/17 09:21:23;;;;;;;;;;;39.20;30.30;;;;;;5018968;28;20361;-83
2022/06/17 09:23:49;;;;;;;;;;;38.00;29.20;;;;;;5029126;28;19955;-84
2022/06/17 09:26:19;;;;;;;;;;;37.50;29.10;;;;;;5015265;28;19915;-82
2022/06/17 09:28:54;;;;;;;;;;;37.40;30.10;;;;;;5023091;28;19948;-83
2022/06/17 09:31:30;;;;;;;;;;;34.50;31.60;;;;;;5026654;28;19909;-83
2022/06/17 09:34:14;;;;;;;;;;;33.10;34.70;;;;;;5017067;28;19917;-86
2022/06/17 09:36:43;;;;;;;;;;;31.00;36.80;;;;;;5027970;28;19910;-83
2022/06/17 09:39:15;;;;;;;;;;;31.00;40.20;;;;;;5031579;28;19944;-82
2022/06/17 09:41:47;;;;;;;;;;;30.30;40.80;;;;;;5013323;28;19971;-83
2022/06/17 09:44:16;;;;;;;;;;;29.20;42.60;;;;;;5016650;28;19980;-84
2022/06/17 09:46:50;;;;;;;;;;;28.30;41.50;;;;;;5019956;28;19935;-82
2022/06/17 09:49:16;;;;;;;;;;;28.60;42.70;;;;;;5019407;28;19919;-81
2022/06/17 09:51:44;;;;;;;;;;;28.10;43.50;;;;;;5020856;28;20004;-83
2022/06/17 09:54:21;;;;;;;;;;;27.80;44.00;;;;;;5016331;28;20380;-85
2022/06/17 09:57:04;;;;;;;;;;;28.00;44.80;;;;;;5021788;28;20366;-83
2022/06/17 09:59:32;;;;;;;;;;;27.40;45.40;;;;;;5012673;28;19952;-83
2022/06/17 10:02:02;;;;;;;;;;;27.50;46.40;;;;;;5016717;28;19917;-83
2022/06/17 10:04:27;;;;;;;;;;;27.50;43.90;;;;;;5011549;28;20412;-83
2022/06/17 10:07:11;;;;;;;;;;;27.50;44.70;;;;;;5023249;28;19951;-83
2022/06/17 10:09:55;;;;;;;;;;;27.50;46.40;;;;;;5020627;28;20063;-84
2022/06/17 10:12:36;;;;;;;;;;;27.60;48.40;;;;;;5029066;28;19909;-81
2022/06/17 10:15:08;;;;;;;;;;;27.50;47.00;;;;;;5029058;28;19912;-83
2022/06/17 10:20:35;;;;;;;;;;;28.50;49.30;;;;;;5021736;28;20412;-82
2022/06/17 10:23:06;;;;;;;;;;;29.00;47.40;;;;;;5022640;28;20291;-80
2022/06/17 10:25:32;;;;;;;;;;;29.60;49.50;;;;;;5023271;28;19917;-81
2022/06/17 10:27:57;;;;;;;;;;;;;;;;;;5015943;28;19913;-81
2022/06/17 10:30:28;;;;;;;;;;;28.20;47.50;;;;;;5013995;28;19974;-81
2022/06/17 10:32:54;;;;;;;;;;;29.20;45.90;;;;;;5026628;28;19924;-83
2022/06/17 10:35:20;;;;;;;;;;;;;;;;;;5033318;28;19909;-84
2022/06/17 10:37:45;;;;;;;;;;;27.90;44.80;;;;;;5035713;28;19920;-81
2022/06/17 10:40:14;;;;;;;;;;;28.50;46.40;;;;;;5029196;28;19921;-84
2022/06/17 10:42:46;;;;;;;;;;;27.50;45.40;;;;;;5028390;28;20866;-80
2022/06/17 10:45:16;;;;;;;;;;;27.10;45.40;;;;;;5025678;28;19913;-83
2022/06/17 10:47:44;;;;;;;;;;;27.30;44.90;;;;;;5019767;28;20142;-84
2022/06/17 10:50:29;;;;;;;;;;;27.60;46.30;;;;;;5025989;28;19921;-82
2022/06/17 10:53:05;;;;;;;;;;;28.20;47.80;;;;;;5025848;28;20389;-83
2022/06/17 10:55:39;;;;;;;;;;;27.60;47.40;;;;;;5026996;28;19912;-84
2022/06/17 10:58:04;;;;;;;;;;;27.80;47.40;;;;;;5027293;28;19913;-82
2022/06/17 11:00:32;;;;;;;;;;;28.00;47.10;;;;;;5026140;28;19978;-82
2022/06/17 11:03:13;;;;;;;;;;;28.10;46.70;;;;;;5020687;28;19909;-83
2022/06/17 11:05:39;;;;;;;;;;;28.50;45.70;;;;;;5024823;28;19917;-82
2022/06/17 11:08:05;;;;;;;;;;;28.40;45.60;;;;;;5016611;28;19913;-81
2022/06/17 11:10:30;;;;;;;;;;;28.80;45.30;;;;;;5023515;28;20023;-84
2022/06/17 11:12:58;;;;;;;;;;;28.20;47.30;;;;;;5015851;28;20498;-83
2022/06/17 11:15:26;;;;;;;;;;;27.90;47.40;;;;;;5019598;28;19911;-83
2022/06/17 11:17:53;;;;;;;;;;;28.40;47.80;;;;;;5020277;28;19909;-83
2022/06/17 11:20:24;;;;;;;;;;;27.70;47.90;;;;;;5013725;28;19924;-84
2022/06/17 11:22:55;;;;;;;;;;;27.70;48.00;;;;;;5020516;28;20008;-83
2022/06/17 11:25:33;;;;;;;;;;;28.10;50.40;;;;;;5012397;28;19945;-85
2022/06/17 11:28:07;;;;;;;;;;;28.30;46.70;;;;;;5022198;28;19970;-86
2022/06/17 11:30:34;;;;;;;;;;;27.80;44.80;;;;;;5023955;28;19905;-83
2022/06/17 11:33:01;;;;;;;;;;;27.70;44.00;;;;;;5024085;28;19991;-83
2022/06/17 11:35:26;;;;;;;;;;;28.10;44.80;;;;;;5028913;28;19909;-83
2022/06/17 11:37:53;;;;;;;;;;;27.50;44.20;;;;;;5026752;28;20400;-83
2022/06/17 11:40:23;;;;;;;;;;;27.50;43.40;;;;;;5028566;28;19913;-83
2022/06/17 11:42:56;;;;;;;;;;;27.40;43.20;;;;;;5028948;28;19999;-84
2022/06/17 11:45:42;;;;;;;;;;;27.40;43.70;;;;;;5025632;28;19917;-83
2022/06/17 11:48:13;;;;;;;;;;;28.60;44.80;;;;;;5027342;28;19909;-82
2022/06/17 11:50:40;;;;;;;;;;;28.70;43.50;;;;;;5021279;28;19909;-84
2022/06/17 11:53:16;;;;;;;;;;;28.80;44.70;;;;;;5025318;28;19916;-84
2022/06/17 11:55:46;;;;;;;;;;;27.80;43.20;;;;;;5022557;28;20620;-84
2022/06/17 11:58:12;;;;;;;;;;;28.00;42.60;;;;;;5021761;28;20004;-82
2022/06/17 12:00:49;;;;;;;;;;;28.80;45.50;;;;;;5027478;28;19964;-83
2022/06/17 12:03:38;;;;;;;;;;;27.90;43.50;;;;;;5034485;28;19909;-85
2022/06/17 12:06:05;;;;;;;;;;;28.90;43.50;;;;;;5031164;28;19917;-84
2022/06/17 12:08:37;;;;;;;;;;;28.80;45.00;;;;;;5033839;28;19920;-83
2022/06/17 12:11:05;;;;;;;;;;;28.90;46.00;;;;;;5034363;28;20357;-83
2022/06/17 12:13:33;;;;;;;;;;;28.90;44.60;;;;;;5032079;28;20020;-84
2022/06/17 12:16:02;;;;;;;;;;;28.70;46.40;;;;;;5027232;28;19916;-85
2022/06/17 12:18:32;;;;;;;;;;;28.10;43.80;;;;;;5030325;28;19960;-85
2022/06/17 12:21:18;;;;;;;;;;;28.80;43.60;;;;;;5026905;28;19931;-80
2022/06/17 12:23:46;;;;;;;;;;;28.40;43.10;;;;;;5038591;28;19944;-81
2022/06/17 12:26:14;;;;;;;;;;;29.00;43.30;;;;;;5036249;28;20427;-80
2022/06/17 12:28:58;;;;;;;;;;;28.90;45.20;;;;;;5034072;28;19909;-83
2022/06/17 12:31:27;;;;;;;;;;;27.80;44.20;;;;;;5032785;28;20357;-82
2022/06/17 12:34:03;;;;;;;;;;;28.30;43.20;;;;;;5026267;28;19917;-84
2022/06/17 12:36:29;;;;;;;;;;;;;;;;;;5029393;28;20007;-82
2022/06/17 12:39:17;;;;;;;;;;;28.00;43.10;;;;;;5030806;28;20322;-85
2022/06/17 12:41:47;;;;;;;;;;;27.80;42.10;;;;;;5029506;28;19964;-83
2022/06/17 12:44:35;;;;;;;;;;;28.30;41.90;;;;;;5033112;28;19912;-83
2022/06/17 12:47:13;;;;;;;;;;;27.80;42.40;;;;;;5029363;28;19917;-83
2022/06/17 12:53:14;;;;;;;;;;;28.90;44.60;;;;;;5035445;28;20016;-82
2022/06/17 12:55:42;;;;;;;;;;;27.70;42.60;;;;;;5035970;28;19928;-84
2022/06/17 12:58:19;;;;;;;;;;;27.70;42.70;;;;;;5031181;28;19963;-79
2022/06/17 13:00:47;;;;;;;;;;;28.20;43.80;;;;;;5031380;28;19967;-83
2022/06/17 13:03:12;;;;;;;;;;;28.00;43.10;;;;;;5031117;28;19914;-82
2022/06/17 13:05:42;;;;;;;;;;;27.70;43.00;;;;;;5032684;28;20380;-83
2022/06/17 13:08:14;;;;;;;;;;;27.70;41.70;;;;;;5038031;28;19909;-82
2022/06/17 13:10:49;;;;;;;;;;;28.10;42.80;;;;;;5034137;28;20008;-83
2022/06/17 13:13:40;;;;;;;;;;;28.00;40.70;;;;;;5032961;28;19972;-83
2022/06/17 13:16:10;;;;;;;;;;;28.60;41.70;;;;;;5025522;28;19920;-82
2022/06/17 13:18:48;;;;;;;;;;;28.30;42.90;;;;;;5028574;28;20377;-84
2022/06/17 13:21:18;;;;;;;;;;;28.00;42.20;;;;;;5023924;28;19940;-82
2022/06/17 13:23:49;;;;;;;;;;;29.20;43.30;;;;;;5031452;28;19909;-83
2022/06/17 13:26:19;;;;;;;;;;;29.10;41.30;;;;;;5023699;28;20613;-85
2022/06/17 13:28:53;;;;;;;;;;;27.90;42.70;;;;;;5033299;28;20233;-84
2022/06/17 13:31:21;;;;;;;;;;;29.40;42.20;;;;;;5030886;28;20391;-79
2022/06/17 13:33:56;;;;;;;;;;;28.40;41.30;;;;;;5031781;28;19913;-83
2022/06/17 13:36:26;;;;;;;;;;;28.60;40.30;;;;;;5027917;28;19913;-81
2022/06/17 13:38:58;;;;;;;;;;;28.20;42.80;;;;;;5027622;28;19913;-82
2022/06/17 13:41:38;;;;;;;;;;;28.30;42.20;;;;;;5032791;28;19917;-82
2022/06/17 13:44:18;;;;;;;;;;;28.40;42.80;;;;;;5032910;28;19909;-82
2022/06/17 13:47:02;;;;;;;;;;;28.20;41.90;;;;;;5042040;28;19920;-82
2022/06/17 13:49:43;;;;;;;;;;;28.60;42.00;;;;;;5026376;28;19910;-84
2022/06/17 13:52:27;;;;;;;;;;;29.20;41.90;;;;;;5030722;28;19913;-82
2022/06/17 13:54:55;;;;;;;;;;;28.20;42.90;;;;;;5030942;28;19951;-82
2022/06/17 13:57:35;;;;;;;;;;;28.20;44.10;;;;;;5028841;28;19914;-81
2022/06/17 14:00:19;;;;;;;;;;;28.40;44.60;;;;;;5035078;28;19909;-82
2022/06/17 14:02:50;;;;;;;;;;;29.10;43.20;;;;;;5037953;28;19920;-81
2022/06/17 14:05:24;;;;;;;;;;;29.10;43.20;;;;;;5032779;28;19909;-81
2022/06/17 14:08:04;;;;;;;;;;;28.20;40.50;;;;;;5034782;28;19913;-82
2022/06/17 14:10:29;;;;;;;;;;;28.30;40.70;;;;;;5039589;28;19909;-82
2022/06/17 14:12:55;;;;;;;;;;;28.50;42.10;;;;;;5037489;28;19976;-82
2022/06/17 14:15:28;;;;;;;;;;;28.20;42.50;;;;;;5040680;28;19948;-82
2022/06/17 14:17:55;;;;;;;;;;;29.20;43.90;;;;;;5045081;28;19913;-82
2022/06/17 14:20:21;;;;;;;;;;;28.30;44.00;;;;;;5039782;28;20307;-81
2022/06/17 14:23:05;;;;;;;;;;;28.20;44.10;;;;;;5035075;28;19912;-82
2022/06/17 14:25:52;;;;;;;;;;;29.10;44.10;;;;;;5027954;28;20028;-81
2022/06/17 14:28:33;;;;;;;;;;;28.20;42.00;;;;;;5026718;28;19912;-81
2022/06/17 14:31:10;;;;;;;;;;;28.50;41.20;;;;;;5031508;28;19909;-82
2022/06/17 14:33:41;;;;;;;;;;;28.00;42.10;;;;;;5029210;28;19909;-83
2022/06/17 14:36:14;;;;;;;;;;;28.30;42.60;;;;;;5031945;28;19940;-80
2022/06/17 14:38:43;;;;;;;;;;;28.30;42.30;;;;;;5040501;28;20366;-82
2022/06/17 14:44:20;;;;;;;;;;;28.10;41.20;;;;;;5032569;28;20412;-81
2022/06/17 14:47:04;;;;;;;;;;;28.20;39.90;;;;;;5019204;28;20349;-83
2022/06/17 14:49:43;;;;;;;;;;;28.20;39.70;;;;;;5033060;28;19909;-83
2022/06/17 14:52:30;;;;;;;;;;;28.10;39.50;;;;;;5034428;28;19927;-82
2022/06/17 14:54:57;;;;;;;;;;;29.40;41.70;;;;;;5034299;28;20000;-84
2022/06/17 14:57:24;;;;;;;;;;;28.60;41.70;;;;;;5033166;28;20400;-84
2022/06/17 14:59:50;;;;;;;;;;;29.10;40.70;;;;;;5028172;28;19909;-86
2022/06/17 15:02:15;;;;;;;;;;;28.30;39.80;;;;;;5032985;28;19956;-83
2022/06/17 15:04:53;;;;;;;;;;;28.10;41.80;;;;;;5031966;28;19999;-81
2022/06/17 15:07:31;;;;;;;;;;;29.30;43.20;;;;;;5042930;28;19936;-83
2022/06/17 15:10:03;;;;;;;;;;;28.10;43.20;;;;;;5053079;28;19963;-82
2022/06/17 15:12:33;;;;;;;;;;;28.70;43.00;;;;;;5049713;28;19905;-81
2022/06/17 15:14:59;;;;;;;;;;;28.20;41.30;;;;;;5046803;28;19917;-82
2022/06/17 15:17:30;;;;;;;;;;;28.20;41.10;;;;;;5048748;28;19940;-83
2022/06/17 15:19:56;;;;;;;;;;;28.20;41.30;;;;;;5040622;28;19906;-83
2022/06/17 15:22:22;;;;;;;;;;;29.40;43.40;;;;;;5045628;28;19919;-85
2022/06/17 15:25:08;;;;;;;;;;;28.70;43.70;;;;;;5048073;28;19915;-82
2022/06/17 15:27:42;;;;;;;;;;;28.20;41.70;;;;;;5046511;28;19963;-82
2022/06/17 15:30:14;;;;;;;;;;;28.30;40.20;;;;;;5044351;28;19998;-82
2022/06/17 15:32:39;;;;;;;;;;;28.30;41.60;;;;;;5046833;28;19913;-84